Berea, Nebraska
Current Conditions -  °F | °C
As of 4:53 PM on Thursday 18 Dec 2014 (Local Time) from KAIA Reporting Station
Clear Clear  
Wind Chill: 13°   Ceiling: Unl
Heat Index: 22°   Visibility: 10mi
Dew Point: 20°   Wind: 7mph
Humidity: 92%   Direction: 290°WNW
Pressure: 30.02"   Gusts: NA
Location:  42.1783°N, 103.14°W
Report Text: KAIA 182353Z AUTO 29006KT 10SM CLR M06/M07 A3002 RMK AO2 SLP228 T10561067 11006 21056 53007
Loading
Personal Weather Stations






























Interactive Weather Map New forecast layout! Learn more

10-Day Weather Forecast

Advertisements
Track Severe Weather on mobile